Time;durP1;ratioP1;P1;durP2;ratioP2;P2;SDS_P1;SDS_P2;PMS_P1;PMS_P2;Temp;Humidity;BMP_temperature;BMP_pressure;BME280_temperature;BME280_humidity;BME280_pressure;Samples;Min_cycle;Max_cycle;Signal;HPM_P1;HPM_P2
2021/10/01 00:02:22;;;;;;;;;;;;;;;-142.75;70.83;77166.78;5105291;28;19922;-77
2021/10/01 00:04:48;;;;;;;;;;;;;;;-142.75;72.41;77168.75;5108950;28;20300;-77
2021/10/01 00:07:14;;;;;;;;;;;;;;;-142.75;72.89;77174.66;5105324;28;19937;-77
2021/10/01 00:09:39;;;;;;;;;;;;;;;-142.75;73.66;77184.50;5107349;28;19942;-78
2021/10/01 00:12:07;;;;;;;;;;;;;;;-142.75;72.66;77200.25;5100675;28;20369;-77
2021/10/01 00:14:32;;;;;;;;;;;;;;;-142.75;73.65;77196.31;5110281;28;19975;-77
2021/10/01 00:16:57;;;;;;;;;;;;;;;-142.75;73.42;77198.28;5109944;28;20018;-78
2021/10/01 00:19:22;;;;;;;;;;;;;;;-142.75;74.63;77194.34;5098915;28;19969;-78
2021/10/01 00:21:48;;;;;;;;;;;;;;;-142.75;75.96;77210.09;5096624;28;19916;-76
2021/10/01 00:24:13;;;;;;;;;;;;;;;-142.75;77.10;77216.00;5109312;28;19931;-78
2021/10/01 00:26:40;;;;;;;;;;;;;;;-142.75;78.13;77208.13;5119418;27;19923;-81
2021/10/01 00:29:06;;;;;;;;;;;;;;;-142.75;78.66;77227.81;5112465;28;19928;-80
2021/10/01 00:31:31;;;;;;;;;;;;;;;-142.75;80.67;77235.69;5118657;27;19916;-79
2021/10/01 00:33:56;;;;;;;;;;;;;;;-142.75;80.81;77243.56;5117849;27;19986;-79
2021/10/01 00:36:22;;;;;;;;;;;;;;;-142.75;81.83;77247.50;5106202;28;19926;-78
2021/10/01 00:38:47;;;;;;;;;;;;;;;-142.75;81.71;77255.38;5105020;28;19916;-78
2021/10/01 00:41:12;;;;;;;;;;;;;;;-142.75;81.82;77247.50;5110358;28;20317;-79
2021/10/01 00:43:37;;;;;;;;;;;;;;;-142.75;82.84;77267.19;5098159;28;19916;-80
2021/10/01 00:46:02;;;;;;;;;;;;;;;-142.75;83.34;77243.56;5108227;28;19948;-81
2021/10/01 00:48:28;;;;;;;;;;;;;;;-142.75;82.95;77243.56;5116865;28;19971;-81
2021/10/01 00:50:53;;;;;;;;;;;;;;;-142.75;82.52;77235.69;5098173;28;19916;-81
2021/10/01 00:53:18;;;;;;;;;;;;;;;-142.75;81.20;77227.81;5098720;28;19983;-80
2021/10/01 00:55:44;;;;;;;;;;;;;;;-142.75;80.52;77225.84;5097269;28;19923;-81
2021/10/01 00:58:09;;;;;;;;;;;;;;;-142.75;82.48;77223.88;5096923;28;19920;-79
2021/10/01 01:00:37;;;;;;;;;;;;;;;-142.75;82.28;77212.06;5104370;28;19916;-80
2021/10/01 01:03:03;;;;;;;;;;;;;;;-142.75;82.28;77217.97;5098628;28;19916;-79
2021/10/01 01:05:46;;;;;;;;;;;;;;;-142.75;81.83;77219.94;5097243;28;19916;-81
2021/10/01 01:08:12;;;;;;;;;;;;;;;-142.75;80.74;77227.81;5097727;28;19924;-80
2021/10/01 01:10:56;;;;;;;;;;;;;;;-142.75;81.59;77212.06;5101230;28;19916;-81
2021/10/01 01:13:36;;;;;;;;;;;;;;;-142.75;79.99;77196.31;5099008;28;19920;-80
2021/10/01 01:16:06;;;;;;;;;;;;;;;-142.75;80.57;77192.38;5118513;28;19916;-79
2021/10/01 01:18:35;;;;;;;;;;;;;;;-142.75;80.08;77188.44;5097856;28;20340;-80
2021/10/01 01:21:01;;;;;;;;;;;;;;;-142.75;79.26;77196.31;5100606;28;20404;-79
2021/10/01 01:23:42;;;;;;;;;;;;;;;-142.75;79.75;77188.44;5111550;28;19942;-79
2021/10/01 01:26:07;;;;;;;;;;;;;;;-142.75;79.21;77180.56;5112610;28;19974;-79
2021/10/01 01:28:32;;;;;;;;;;;;;;;-142.75;79.18;77170.72;5099072;28;19916;-79
2021/10/01 01:31:01;;;;;;;;;;;;;;;-142.75;78.99;77166.78;5097831;28;19923;-79
2021/10/01 01:33:28;;;;;;;;;;;;;;;-142.75;77.86;77176.63;5099658;28;19920;-80
2021/10/01 01:35:56;;;;;;;;;;;;;;;-142.75;78.55;77176.63;5097541;28;20438;-80
2021/10/01 01:38:25;;;;;;;;;;;;;;;-142.75;78.52;77168.75;5119329;28;19976;-82
2021/10/01 01:40:54;;;;;;;;;;;;;;;-142.75;78.89;77180.56;5100622;28;20003;-80
2021/10/01 01:43:20;;;;;;;;;;;;;;;-142.75;77.97;77166.78;5096677;28;19916;-81
2021/10/01 01:45:46;;;;;;;;;;;;;;;-142.75;78.64;77168.75;5099653;28;19916;-81
2021/10/01 01:48:12;;;;;;;;;;;;;;;-142.75;77.64;77168.75;5098570;28;19916;-79
2021/10/01 01:50:37;;;;;;;;;;;;;;;-142.75;77.39;77172.69;5099329;28;19916;-81
2021/10/01 01:53:03;;;;;;;;;;;;;;;-142.75;78.09;77156.94;5098388;28;19956;-81
2021/10/01 01:55:29;;;;;;;;;;;;;;;-142.75;77.13;77149.06;5097067;28;19969;-78
2021/10/01 01:57:55;;;;;;;;;;;;;;;-142.75;77.22;77143.16;5097041;28;19924;-78
2021/10/01 02:00:21;;;;;;;;;;;;;;;-142.75;76.74;77141.19;5096322;28;19917;-81
2021/10/01 02:02:47;;;;;;;;;;;;;;;-142.75;76.93;77145.13;5099752;28;19924;-80
2021/10/01 02:05:13;;;;;;;;;;;;;;;-142.75;76.46;77137.25;5098557;28;19923;-79
2021/10/01 02:07:39;;;;;;;;;;;;;;;-142.75;76.56;77129.38;5101215;28;19924;-80
2021/10/01 02:10:05;;;;;;;;;;;;;;;-142.75;76.56;77137.25;5106187;28;19915;-81
2021/10/01 02:12:31;;;;;;;;;;;;;;;-142.75;77.19;77143.16;5117322;28;19923;-81
2021/10/01 02:14:59;;;;;;;;;;;;;;;-142.75;76.92;77149.06;5118124;28;19919;-80
2021/10/01 02:17:25;;;;;;;;;;;;;;;-142.75;77.62;77156.94;5111768;28;19920;-78
2021/10/01 02:19:52;;;;;;;;;;;;;;;-142.75;78.20;77156.94;5104803;28;19904;-80
2021/10/01 02:22:18;;;;;;;;;;;;;;;-142.75;78.62;77164.81;5099490;28;20022;-79
2021/10/01 02:24:44;;;;;;;;;;;;;;;-142.75;78.80;77153.00;5110695;28;19915;-80
2021/10/01 02:27:12;;;;;;;;;;;;;;;-142.75;78.83;77168.75;5122440;28;19931;-82
2021/10/01 02:29:50;;;;;;;;;;;;;;;-142.75;79.51;77166.78;5111396;28;19923;-79
2021/10/01 02:32:34;;;;;;;;;;;;;;;-142.75;80.15;77174.66;5119904;28;19921;-81
2021/10/01 02:35:00;;;;;;;;;;;;;;;-142.75;80.35;77172.69;5121136;28;19915;-79
2021/10/01 02:37:25;;;;;;;;;;;;;;;-142.75;79.37;77166.78;5117534;28;19920;-80
2021/10/01 02:39:51;;;;;;;;;;;;;;;-142.75;78.07;77141.19;5101177;28;19969;-79
2021/10/01 02:42:17;;;;;;;;;;;;;;;-142.75;78.11;77141.19;5102610;28;19946;-79
2021/10/01 02:44:43;;;;;;;;;;;;;;;-142.75;77.69;77137.25;5102595;28;19916;-79
2021/10/01 02:47:09;;;;;;;;;;;;;;;-142.75;78.23;77141.19;5102385;28;19916;-79
2021/10/01 02:49:35;;;;;;;;;;;;;;;-142.75;78.44;77139.22;5102556;28;19916;-79
2021/10/01 02:52:07;;;;;;;;;;;;;;;-142.75;78.37;77133.31;5122001;28;20384;-80
2021/10/01 02:54:35;;;;;;;;;;;;;;;-142.75;78.60;77141.19;5122078;28;19922;-80
2021/10/01 02:57:07;;;;;;;;;;;;;;;-142.75;78.87;77145.13;5122732;28;19920;-79
2021/10/01 02:59:33;;;;;;;;;;;;;;;-142.75;78.68;77137.25;5122711;28;19968;-79
2021/10/01 03:01:59;;;;;;;;;;;;;;;-142.75;78.72;77137.25;5109913;28;19916;-80
2021/10/01 03:04:25;;;;;;;;;;;;;;;-142.75;78.66;77133.31;5104864;28;19939;-80
2021/10/01 03:06:51;;;;;;;;;;;;;;;-142.75;78.65;77127.41;5110094;28;19916;-78
2021/10/01 03:09:17;;;;;;;;;;;;;;;-142.75;78.27;77125.44;5102250;28;19951;-81
2021/10/01 03:11:44;;;;;;;;;;;;;;;-142.75;79.07;77113.63;5101889;28;19916;-79
2021/10/01 03:14:10;;;;;;;;;;;;;;;-142.75;78.50;77121.50;5100679;22;19931;-78
2021/10/01 03:16:36;;;;;;;;;;;;;;;-142.75;78.56;77127.41;5083583;28;20407;-78
2021/10/01 03:19:02;;;;;;;;;;;;;;;-142.75;78.27;77125.44;5085489;28;19922;-78
2021/10/01 03:21:27;;;;;;;;;;;;;;;-142.75;78.44;77109.69;5085512;28;19923;-80
2021/10/01 03:23:53;;;;;;;;;;;;;;;-142.75;78.43;77107.72;5068115;28;20011;-82
2021/10/01 03:26:19;;;;;;;;;;;;;;;-142.75;78.39;77121.50;5066281;28;19939;-79
2021/10/01 03:28:44;;;;;;;;;;;;;;;-142.75;78.99;77115.59;5064689;28;19924;-78
2021/10/01 03:31:10;;;;;;;;;;;;;;;-142.75;79.57;77125.44;5065086;28;19967;-79
2021/10/01 03:33:35;;;;;;;;;;;;;;;-142.75;79.35;77109.69;5064989;28;19924;-79
2021/10/01 03:36:01;;;;;;;;;;;;;;;-142.75;79.04;77117.56;5067596;28;19917;-80
2021/10/01 03:38:26;;;;;;;;;;;;;;;-142.75;78.93;77109.69;5066243;28;20003;-79
2021/10/01 03:40:52;;;;;;;;;;;;;;;-142.75;78.75;77111.66;5065703;28;20383;-80
2021/10/01 03:43:18;;;;;;;;;;;;;;;-142.75;78.83;77113.63;5063069;28;19923;-79
2021/10/01 03:45:43;;;;;;;;;;;;;;;-142.75;79.57;77121.50;5062155;28;19917;-81
2021/10/01 03:48:09;;;;;;;;;;;;;;;-142.75;80.05;77107.72;5066152;28;20012;-79
2021/10/01 03:50:35;;;;;;;;;;;;;;;-142.75;80.05;77115.59;5064417;28;19920;-79
2021/10/01 03:53:01;;;;;;;;;;;;;;;-142.75;79.57;77121.50;5064410;28;20020;-81
2021/10/01 03:55:26;;;;;;;;;;;;;;;-142.75;79.16;77105.75;5066369;28;19952;-79
2021/10/01 03:57:51;;;;;;;;;;;;;;;-142.75;78.70;77084.09;5062288;28;20007;-79
2021/10/01 04:00:17;;;;;;;;;;;;;;;-142.75;79.54;77090.00;5065991;28;19925;-78
2021/10/01 04:02:43;;;;;;;;;;;;;;;-142.75;79.63;77101.81;5062587;28;19921;-78
2021/10/01 04:05:08;;;;;;;;;;;;;;;-142.75;79.90;77105.75;5066695;28;20575;-79
2021/10/01 04:07:33;;;;;;;;;;;;;;;-142.75;80.34;77107.72;5068051;28;20294;-79
2021/10/01 04:09:58;;;;;;;;;;;;;;;-142.75;80.51;77105.75;5067623;28;19916;-79
2021/10/01 04:12:24;;;;;;;;;;;;;;;-142.75;80.66;77105.75;5062583;28;19924;-79
2021/10/01 04:14:49;;;;;;;;;;;;;;;-142.75;79.98;77113.63;5060055;28;19917;-78
2021/10/01 04:17:16;;;;;;;;;;;;;;;-142.75;80.36;77103.78;5066416;28;19928;-80
2021/10/01 04:19:41;;;;;;;;;;;;;;;-142.75;80.28;77099.84;5065251;28;19916;-79
2021/10/01 04:22:06;;;;;;;;;;;;;;;-142.75;80.69;77099.84;5065094;28;20397;-79
2021/10/01 04:24:32;;;;;;;;;;;;;;;-142.75;80.36;77115.59;5063274;28;20055;-80
2021/10/01 04:26:57;;;;;;;;;;;;;;;-142.75;80.77;77107.72;5065046;28;20214;-78
2021/10/01 04:29:22;;;;;;;;;;;;;;;-142.75;81.59;77119.53;5060989;28;20007;-79
2021/10/01 04:31:47;;;;;;;;;;;;;;;-142.75;81.39;77117.56;5062199;28;19924;-79
2021/10/01 04:34:12;;;;;;;;;;;;;;;-142.75;81.39;77117.56;5063127;28;20282;-79
2021/10/01 04:36:38;;;;;;;;;;;;;;;-142.75;81.51;77139.22;5064629;28;20397;-81
2021/10/01 04:39:03;;;;;;;;;;;;;;;-142.75;81.89;77133.31;5064587;28;19924;-79
2021/10/01 04:41:28;;;;;;;;;;;;;;;-142.75;81.76;77145.13;5064286;28;19955;-78
2021/10/01 04:43:55;;;;;;;;;;;;;;;-142.75;82.01;77135.28;5064088;28;19923;-79
2021/10/01 04:46:20;;;;;;;;;;;;;;;-142.75;81.87;77137.25;5062924;28;19936;-80
2021/10/01 04:48:45;;;;;;;;;;;;;;;-142.75;81.99;77141.19;5062580;28;20405;-79
2021/10/01 04:51:11;;;;;;;;;;;;;;;-142.75;81.78;77139.22;5062474;28;19965;-79
2021/10/01 04:53:36;;;;;;;;;;;;;;;-142.75;82.00;77153.00;5064087;28;20386;-81
2021/10/01 04:56:01;;;;;;;;;;;;;;;-142.75;82.41;77139.22;5061192;28;19920;-79
2021/10/01 04:58:26;;;;;;;;;;;;;;;-142.75;82.24;77145.13;5062242;28;19916;-77
2021/10/01 05:00:51;;;;;;;;;;;;;;;-142.75;82.08;77147.09;5064672;28;19916;-78
2021/10/01 05:03:17;;;;;;;;;;;;;;;-142.75;81.77;77137.25;5059852;28;19916;-78
2021/10/01 05:05:42;;;;;;;;;;;;;;;-142.75;81.29;77137.25;5064357;28;20383;-80
2021/10/01 05:08:07;;;;;;;;;;;;;;;-142.75;80.97;77127.41;5065613;28;19921;-80
2021/10/01 05:10:32;;;;;;;;;;;;;;;-142.75;81.54;77129.38;5063534;28;19917;-78
2021/10/01 05:12:57;;;;;;;;;;;;;;;-142.75;81.57;77145.13;5060499;28;20043;-79
2021/10/01 05:15:23;;;;;;;;;;;;;;;-142.75;81.96;77135.28;5063488;28;19916;-80
2021/10/01 05:17:50;;;;;;;;;;;;;;;-142.75;81.82;77143.16;5061715;28;19924;-79
2021/10/01 05:20:15;;;;;;;;;;;;;;;-142.75;81.45;77127.41;5061122;28;19964;-80
2021/10/01 05:22:40;;;;;;;;;;;;;;;-142.75;81.56;77123.47;5060597;28;19970;-77
2021/10/01 05:25:06;;;;;;;;;;;;;;;-142.75;81.72;77129.38;5061758;28;20399;-79
2021/10/01 05:27:31;;;;;;;;;;;;;;;-142.75;81.32;77141.19;5063289;28;20417;-78
2021/10/01 05:29:57;;;;;;;;;;;;;;;-142.75;81.62;77121.50;5059393;28;19946;-80
2021/10/01 05:32:22;;;;;;;;;;;;;;;-142.75;81.66;77125.44;5064217;28;19940;-79
2021/10/01 05:34:47;;;;;;;;;;;;;;;-142.75;82.14;77131.34;5065135;28;19920;-80
2021/10/01 05:37:13;;;;;;;;;;;;;;;-142.75;82.23;77135.28;5062314;28;20396;-78
2021/10/01 05:39:38;;;;;;;;;;;;;;;-142.75;82.53;77141.19;5063241;28;19923;-79
2021/10/01 05:42:04;;;;;;;;;;;;;;;-142.75;82.01;77135.28;5066538;28;19916;-79
2021/10/01 05:44:29;;;;;;;;;;;;;;;-142.75;81.42;77127.41;5064216;28;19940;-78
2021/10/01 05:46:54;;;;;;;;;;;;;;;-142.75;82.03;77137.25;5062194;28;19952;-79
2021/10/01 05:49:26;;;;;;;;;;;;;;;-142.75;82.01;77133.31;5063536;28;19960;-79
2021/10/01 05:51:53;;;;;;;;;;;;;;;-142.75;82.39;77129.38;5063221;28;19917;-80
2021/10/01 05:54:22;;;;;;;;;;;;;;;-142.75;82.88;77131.34;5062279;28;20337;-78
2021/10/01 05:56:49;;;;;;;;;;;;;;;-142.75;82.76;77125.44;5062819;28;19929;-79
2021/10/01 05:59:14;;;;;;;;;;;;;;;-142.75;83.08;77129.38;5063218;28;19917;-80
2021/10/01 06:01:39;;;;;;;;;;;;;;;-142.75;82.78;77135.28;5058738;28;20290;-79
2021/10/01 06:04:06;;;;;;;;;;;;;;;-142.75;82.47;77129.38;5057640;28;20005;-81
2021/10/01 06:06:32;;;;;;;;;;;;;;;-142.75;82.45;77115.59;5060776;28;20030;-81
2021/10/01 06:08:57;;;;;;;;;;;;;;;-142.75;81.83;77107.72;5065194;28;20356;-78
2021/10/01 06:11:22;;;;;;;;;;;;;;;-142.75;81.83;77113.63;5060147;28;19917;-80
2021/10/01 06:13:47;;;;;;;;;;;;;;;-142.75;81.66;77103.78;5059855;28;19955;-78
2021/10/01 06:16:12;;;;;;;;;;;;;;;-142.75;81.34;77101.81;5062155;28;19917;-79
2021/10/01 06:18:38;;;;;;;;;;;;;;;-142.75;80.89;77090.00;5063365;28;19958;-78
2021/10/01 06:21:03;;;;;;;;;;;;;;;-142.75;80.96;77097.88;5062312;28;20285;-79
2021/10/01 06:23:33;;;;;;;;;;;;;;;-142.75;81.27;77074.25;5065549;28;20388;-79
2021/10/01 06:25:59;;;;;;;;;;;;;;;-142.75;80.60;77066.38;5065282;28;19916;-78
2021/10/01 06:28:24;;;;;;;;;;;;;;;-142.75;81.18;77058.50;5061266;28;19916;-79
2021/10/01 06:30:49;;;;;;;;;;;;;;;-142.75;80.96;77066.38;5064957;28;19916;-79
2021/10/01 06:33:15;;;;;;;;;;;;;;;-142.75;80.60;77068.34;5060265;28;19931;-79
2021/10/01 06:35:41;;;;;;;;;;;;;;;-142.75;81.11;77070.31;5063091;28;19917;-79
2021/10/01 06:38:06;;;;;;;;;;;;;;;-142.75;80.93;77064.41;5063052;28;20322;-80
2021/10/01 06:40:31;;;;;;;;;;;;;;;-142.75;80.07;77048.66;5063098;28;19916;-80
2021/10/01 06:42:57;;;;;;;;;;;;;;;-142.75;80.05;77050.63;5061609;28;20421;-81
2021/10/01 06:45:26;;;;;;;;;;;;;;;-142.75;79.94;77050.63;5063570;28;19925;-78
2021/10/01 07:21:15;;;;;;;;;;;;;;;-142.75;78.09;76956.13;5061591;28;20015;-78
2021/10/01 07:45:13;;;;;;;;;;;;;;;-142.75;71.34;76743.53;5057892;28;19916;-77
2021/10/01 08:20:18;;;;;;;;;;;;;;;-142.75;72.28;76735.66;5052310;28;19936;-76
2021/10/01 08:22:43;;;;;;;;;;;;;;;-142.75;72.45;76710.06;5062363;28;19920;-78
2021/10/01 08:25:09;;;;;;;;;;;;;;;-142.75;71.64;76712.03;5052915;28;19917;-77
2021/10/01 08:27:35;;;;;;;;;;;;;;;-142.75;71.07;76708.09;5061895;28;19916;-76
2021/10/01 08:30:02;;;;;;;;;;;;;;;-142.75;70.79;76686.44;5054014;28;19923;-77
2021/10/01 08:32:28;;;;;;;;;;;;;;;-142.75;70.54;76676.59;5051712;28;20058;-76
2021/10/01 08:34:53;;;;;;;;;;;;;;;-142.75;69.93;76637.22;5051777;28;19963;-77
2021/10/01 08:37:18;;;;;;;;;;;;;;;-142.75;67.85;76507.31;5052555;28;20081;-76
2021/10/01 08:39:43;;;;;;;;;;;;;;;-142.75;64.68;76357.69;5070730;28;20014;-77
2021/10/01 08:42:09;;;;;;;;;;;;;;;-142.75;61.50;76259.28;5056533;28;19943;-76
2021/10/01 08:44:34;;;;;;;;;;;;;;;-142.75;59.32;76156.94;5050679;28;19917;-77
2021/10/01 08:47:02;;;;;;;;;;;;;;;-142.75;58.23;76048.69;5065726;28;19917;-77
2021/10/01 08:49:28;;;;;;;;;;;;;;;-142.75;54.47;76121.50;5058211;28;19964;-76
2021/10/01 08:51:53;;;;;;;;;;;;;;;-142.75;57.16;76259.28;5049927;28;20385;-77
2021/10/01 08:54:18;;;;;;;;;;;;;;;-142.75;57.91;76255.34;5050404;28;19923;-76
2021/10/01 08:56:44;;;;;;;;;;;;;;;-142.75;59.12;76306.53;5051481;28;19927;-76
2021/10/01 08:59:09;;;;;;;;;;;;;;;-142.75;60.31;76312.44;5049336;28;19920;-76
2021/10/01 09:01:34;;;;;;;;;;;;;;;-142.75;60.20;76377.38;5050514;28;19927;-76
2021/10/01 09:04:00;;;;;;;;;;;;;;;-142.75;62.62;76345.91;5049023;28;20297;-76
2021/10/01 09:06:25;;;;;;;;;;;;;;;-142.75;61.73;76196.31;5050744;28;19921;-76
2021/10/01 09:08:52;;;;;;;;;;;;;;;-142.75;57.45;76158.91;5063264;28;19939;-76
2021/10/01 09:11:18;;;;;;;;;;;;;;;-142.75;57.80;76204.16;5067023;28;19916;-76
2021/10/01 09:13:43;;;;;;;;;;;;;;;-142.75;58.57;76239.59;5069275;28;19928;-76
2021/10/01 09:16:11;;;;;;;;;;;;;;;-142.75;60.24;76194.34;5059555;28;19917;-76
2021/10/01 09:18:37;;;;;;;;;;;;;;;-142.75;58.68;76233.69;5064881;28;19920;-76
2021/10/01 09:21:03;;;;;;;;;;;;;;;-142.75;59.90;76286.84;5064970;28;19939;-77
2021/10/01 09:23:28;;;;;;;;;;;;;;;-142.75;61.03;76304.56;5059538;28;19924;-76
2021/10/01 09:26:05;;;;;;;;;;;;;;;-142.75;62.61;76314.41;5060727;28;19916;-77
2021/10/01 09:28:41;;;;;;;;;;;;;;;-142.75;61.90;76271.09;5055638;28;19939;-77
2021/10/01 09:31:07;;;;;;;;;;;;;;;-142.75;60.18;76208.09;5062114;28;20390;-75
2021/10/01 09:33:32;;;;;;;;;;;;;;;-142.75;61.81;76212.03;5054458;28;19979;-77
2021/10/01 09:36:08;;;;;;;;;;;;;;;-142.75;60.70;76190.41;5063524;28;19921;-76
2021/10/01 09:38:37;;;;;;;;;;;;;;;-142.75;60.80;76184.50;5068492;28;19966;-76
2021/10/01 09:41:13;;;;;;;;;;;;;;;-142.75;59.97;76172.69;5059937;28;20023;-76
2021/10/01 09:43:38;;;;;;;;;;;;;;;-142.75;59.76;76217.94;5085538;28;19942;-76
2021/10/01 09:46:08;;;;;;;;;;;;;;;-142.75;60.70;76271.09;5064883;28;19916;-77
2021/10/01 09:48:37;;;;;;;;;;;;;;;-142.75;62.52;76353.78;5056564;28;19916;-77
2021/10/01 09:51:06;;;;;;;;;;;;;;;-142.75;64.75;76444.31;5070441;28;19955;-77
2021/10/01 09:53:40;;;;;;;;;;;;;;;-142.75;67.03;76473.84;5056530;28;19979;-76
2021/10/01 09:56:15;;;;;;;;;;;;;;;-142.75;68.00;76501.41;5048849;28;19967;-76
2021/10/01 09:58:41;;;;;;;;;;;;;;;-142.75;69.21;76519.13;5059930;28;20293;-75
2021/10/01 10:01:06;;;;;;;;;;;;;;;-142.75;69.96;76562.41;5069901;28;19916;-76
2021/10/01 10:03:31;;;;;;;;;;;;;;;-142.75;72.90;76576.19;5067510;28;19922;-75
2021/10/01 10:05:59;;;;;;;;;;;;;;;-142.75;78.17;76619.50;5060058;28;20011;-78
2021/10/01 10:08:25;;;;;;;;;;;;;;;-142.75;82.93;76637.22;5061523;28;19923;-77
2021/10/01 10:10:50;;;;;;;;;;;;;;;-142.75;85.83;76654.94;5057691;28;19917;-77
2021/10/01 10:13:15;;;;;;;;;;;;;;;-142.75;86.94;76680.53;5060439;28;19932;-78
2021/10/01 10:15:40;;;;;;;;;;;;;;;-142.75;88.33;76684.47;5061681;28;19947;-79
2021/10/01 10:18:17;;;;;;;;;;;;;;;-142.75;89.44;76676.59;5065167;28;19928;-77
2021/10/01 10:20:42;;;;;;;;;;;;;;;-142.75;88.98;76692.34;5064252;28;19961;-78
2021/10/01 10:23:08;;;;;;;;;;;;;;;-142.75;89.73;76692.34;5062584;28;20420;-76
2021/10/01 10:25:34;;;;;;;;;;;;;;;-142.75;89.84;76690.38;5059920;28;19917;-79
2021/10/01 10:28:00;;;;;;;;;;;;;;;-142.75;89.75;76684.47;5059690;28;19917;-77
2021/10/01 10:30:25;;;;;;;;;;;;;;;-142.75;90.30;76700.22;5058175;28;20530;-77
2021/10/01 10:32:50;;;;;;;;;;;;;;;-142.75;91.60;76696.28;5063515;28;19917;-79
2021/10/01 10:35:19;;;;;;;;;;;;;;;-142.75;90.99;76696.28;5060542;28;19917;-78
2021/10/01 10:37:46;;;;;;;;;;;;;;;-142.75;91.19;76680.53;5060666;28;19991;-77
2021/10/01 10:40:15;;;;;;;;;;;;;;;-142.75;91.31;76676.59;5063088;28;19924;-78
2021/10/01 10:42:41;;;;;;;;;;;;;;;-142.75;91.26;76672.66;5062658;28;19924;-77
2021/10/01 10:45:25;;;;;;;;;;;;;;;-142.75;91.30;76672.66;5065745;28;20451;-78
2021/10/01 10:47:52;;;;;;;;;;;;;;;-142.75;91.13;76704.16;5065335;28;20361;-77
2021/10/01 10:50:29;;;;;;;;;;;;;;;-142.75;92.17;76660.84;5071855;28;19922;-79
2021/10/01 10:53:03;;;;;;;;;;;;;;;-142.75;91.78;76649.03;5065673;28;19917;-79
2021/10/01 10:55:29;;;;;;;;;;;;;;;-142.75;92.08;76625.41;5064958;28;20015;-76
2021/10/01 10:57:54;;;;;;;;;;;;;;;-142.75;90.06;76611.63;5065678;28;20011;-78
2021/10/01 11:00:35;;;;;;;;;;;;;;;-142.75;89.03;76601.78;5063012;28;19956;-77
2021/10/01 11:03:21;;;;;;;;;;;;;;;-142.75;88.86;76625.41;5065955;28;19921;-80
2021/10/01 11:06:01;;;;;;;;;;;;;;;-142.75;89.55;76605.72;5067725;28;20350;-77
2021/10/01 11:08:26;;;;;;;;;;;;;;;-142.75;89.91;76605.72;5060334;28;19916;-78
2021/10/01 11:10:51;;;;;;;;;;;;;;;-142.75;89.71;76597.84;5062807;28;20023;-80
2021/10/01 11:13:23;;;;;;;;;;;;;;;-142.75;89.42;76601.78;5067756;28;19916;-79
2021/10/01 11:16:10;;;;;;;;;;;;;;;-142.75;89.00;76580.13;5060373;28;19920;-78
2021/10/01 11:18:35;;;;;;;;;;;;;;;-142.75;87.88;76623.44;5059759;28;19921;-79
2021/10/01 11:21:20;;;;;;;;;;;;;;;-142.75;88.67;76588.00;5064827;28;20378;-79
2021/10/01 11:24:04;;;;;;;;;;;;;;;-142.75;89.70;76597.84;5055415;28;20011;-78
2021/10/01 11:26:37;;;;;;;;;;;;;;;-142.75;91.18;76607.69;5057585;28;19917;-78
2021/10/01 11:29:03;;;;;;;;;;;;;;;-142.75;92.29;76633.28;5062172;28;19958;-81
2021/10/01 11:31:34;;;;;;;;;;;;;;;-142.75;92.68;76633.28;5064669;28;19921;-80
2021/10/01 11:34:00;;;;;;;;;;;;;;;-142.75;93.73;76625.41;5049955;28;19921;-78
2021/10/01 11:36:25;;;;;;;;;;;;;;;-142.75;93.54;76619.50;5063852;28;19930;-80
2021/10/01 11:39:00;;;;;;;;;;;;;;;-142.75;92.50;76609.66;5063969;28;20279;-81
2021/10/01 11:43:54;;;;;;;;;;;;;;;-142.75;92.26;76586.03;5116053;22;19924;-81
2021/10/01 11:46:46;;;;;;;;;;;;;;;-142.75;90.74;76593.91;5098052;28;19959;-82
2021/10/01 11:49:16;;;;;;;;;;;;;;;-142.75;90.02;76593.91;5099164;27;19935;-81
2021/10/01 11:51:42;;;;;;;;;;;;;;;-142.75;90.22;76588.00;5101571;28;20009;-81
2021/10/01 11:54:08;;;;;;;;;;;;;;;-142.75;89.82;76568.31;5114966;28;19916;-81
2021/10/01 11:56:34;;;;;;;;;;;;;;;-142.75;88.27;76552.56;5119540;28;20002;-82
2021/10/01 11:58:59;;;;;;;;;;;;;;;-142.75;87.07;76534.84;5111290;28;19958;-81
2021/10/01 12:01:24;;;;;;;;;;;;;;;-142.75;84.88;76509.28;5112611;28;19947;-80
2021/10/01 12:03:50;;;;;;;;;;;;;;;-142.75;84.82;76530.91;5108902;28;19916;-81
2021/10/01 12:06:27;;;;;;;;;;;;;;;-142.75;85.61;76521.09;5116445;28;19916;-80
2021/10/01 12:09:03;;;;;;;;;;;;;;;-142.75;83.87;76485.66;5110202;28;19955;-81
2021/10/01 12:11:30;;;;;;;;;;;;;;;-142.75;83.83;76467.94;5097094;28;19968;-81
2021/10/01 12:14:07;;;;;;;;;;;;;;;-142.75;83.42;76471.88;5117286;28;20337;-82
2021/10/01 12:16:32;;;;;;;;;;;;;;;-142.75;83.49;76471.88;5117790;28;20308;-80
2021/10/01 12:18:57;;;;;;;;;;;;;;;-142.75;85.91;76491.56;5115856;28;20010;-83
2021/10/01 12:21:27;;;;;;;;;;;;;;;-142.75;85.71;76493.53;5116601;28;19924;-81
2021/10/01 12:24:00;;;;;;;;;;;;;;;-142.75;87.30;76519.13;5105792;28;19923;-80
2021/10/01 12:26:25;;;;;;;;;;;;;;;-142.75;87.71;76507.31;5117435;28;19922;-82
2021/10/01 12:29:11;;;;;;;;;;;;;;;-142.75;86.83;76505.34;5104427;28;19975;-80
2021/10/01 12:31:45;;;;;;;;;;;;;;;-142.75;88.05;76495.50;5107152;28;19969;-83
2021/10/01 12:34:24;;;;;;;;;;;;;;;-142.75;88.09;76485.66;5109669;28;20157;-82
2021/10/01 12:36:52;;;;;;;;;;;;;;;-142.75;86.74;76460.06;5117645;28;19919;-80
2021/10/01 12:39:17;;;;;;;;;;;;;;;-142.75;85.49;76454.16;5111868;28;19924;-81
2021/10/01 12:41:43;;;;;;;;;;;;;;;-142.75;84.24;76467.94;5106513;28;19987;-81
2021/10/01 12:44:09;;;;;;;;;;;;;;;-142.75;84.78;76456.13;5107031;28;19916;-81
2021/10/01 12:46:39;;;;;;;;;;;;;;;-142.75;84.76;76467.94;5101782;28;19923;-82
2021/10/01 12:49:17;;;;;;;;;;;;;;;-142.75;84.90;76469.91;5096831;28;20384;-81
2021/10/01 12:51:43;;;;;;;;;;;;;;;-142.75;85.26;76467.94;5109278;28;19957;-82
2021/10/01 12:54:22;;;;;;;;;;;;;;;-142.75;84.83;76491.56;5101254;28;19916;-80
2021/10/01 12:56:47;;;;;;;;;;;;;;;-142.75;86.51;76509.28;5117120;28;19919;-82
2021/10/01 12:59:32;;;;;;;;;;;;;;;-142.75;90.41;76530.91;5116828;28;20300;-80
2021/10/01 13:02:12;;;;;;;;;;;;;;;-142.75;94.81;76558.47;5109716;28;19916;-80
2021/10/01 13:04:55;;;;;;;;;;;;;;;-142.75;98.48;76556.50;5097561;28;19922;-80
2021/10/01 13:07:21;;;;;;;;;;;;;;;-142.75;100.00;76554.53;5100078;28;19922;-80
2021/10/01 13:09:46;;;;;;;;;;;;;;;-142.75;100.00;76558.47;5109215;28;19924;-80
2021/10/01 13:12:25;;;;;;;;;;;;;;;-142.75;100.00;76568.31;5098580;28;19916;-80
2021/10/01 13:15:08;;;;;;;;;;;;;;;-142.75;100.00;76595.88;5099800;28;19916;-80
2021/10/01 13:17:34;;;;;;;;;;;;;;;-142.75;100.00;76582.09;5103428;28;19920;-80
2021/10/01 13:20:00;;;;;;;;;;;;;;;-142.75;100.00;76566.34;5108272;28;19927;-83
2021/10/01 13:22:25;;;;;;;;;;;;;;;-142.75;100.00;76560.44;5108312;28;20411;-80
2021/10/01 13:24:56;;;;;;;;;;;;;;;-142.75;100.00;76566.34;5103594;28;19950;-82
2021/10/01 13:27:22;;;;;;;;;;;;;;;-142.75;100.00;76550.59;5107123;28;19965;-81
2021/10/01 13:29:47;;;;;;;;;;;;;;;-142.75;100.00;76564.38;5106314;28;19920;-80
2021/10/01 13:32:12;;;;;;;;;;;;;;;-142.75;100.00;76560.44;5102859;28;19958;-82
2021/10/01 13:34:38;;;;;;;;;;;;;;;-142.75;100.00;76552.56;5107079;28;19962;-81
2021/10/01 13:37:03;;;;;;;;;;;;;;;-142.75;100.00;76562.41;5102880;28;19926;-83
2021/10/01 13:39:28;;;;;;;;;;;;;;;-142.75;100.00;76554.53;5102203;28;20354;-83
2021/10/01 13:41:55;;;;;;;;;;;;;;;-142.75;100.00;76548.63;5097163;28;21409;-83
2021/10/01 13:44:20;;;;;;;;;;;;;;;-142.75;100.00;76558.47;5099753;28;20014;-81
2021/10/01 13:46:45;;;;;;;;;;;;;;;-142.75;99.02;76546.66;5102824;28;19922;-83
2021/10/01 13:49:11;;;;;;;;;;;;;;;-142.75;100.00;76544.69;5110702;28;19938;-81
2021/10/01 13:51:36;;;;;;;;;;;;;;;-142.75;99.24;76536.84;5105750;28;19938;-81
2021/10/01 13:54:01;;;;;;;;;;;;;;;-142.75;99.41;76534.84;5098809;28;20374;-82
2021/10/01 13:56:26;;;;;;;;;;;;;;;-142.75;98.38;76550.59;5099662;28;19954;-83
2021/10/01 13:58:52;;;;;;;;;;;;;;;-142.75;97.83;76532.88;5099798;28;19916;-81